Time;durP1;ratioP1;P1;durP2;ratioP2;P2;SDS_P1;SDS_P2;PMS_P1;PMS_P2;Temp;Humidity;BMP_temperature;BMP_pressure;BME280_temperature;BME280_humidity;BME280_pressure;Samples;Min_cycle;Max_cycle;Signal;HPM_P1;HPM_P2
2024/01/10 00:00:10;;;;;;;22.30;9.18;;;;;;;;;;5043608;28;20039;-51
2024/01/10 00:02:36;;;;;;;15.35;8.30;;;;;;;;;;5051918;28;20041;-52
2024/01/10 00:05:03;;;;;;;19.25;9.20;;;;;;;;;;5048724;28;20051;-51
2024/01/10 00:07:29;;;;;;;11.30;7.43;;;;;;;;;;5056186;28;20021;-49
2024/01/10 00:09:57;;;;;;;14.10;7.30;;;;;;;;;;5053182;28;20044;-52
2024/01/10 00:12:23;;;;;;;;;;;;;;;;;;5066020;28;20024;-49
2024/01/10 00:14:49;;;;;;;14.23;8.73;;;;;;;;;;5069275;28;20374;-50
2024/01/10 00:17:15;;;;;;;14.95;7.95;;;;;;;;;;5049742;28;20029;-50
2024/01/10 00:19:41;;;;;;;17.35;8.50;;;;;;;;;;5053648;28;20037;-50
2024/01/10 00:22:07;;;;;;;17.92;8.57;;;;;;;;;;5071625;28;20376;-50
2024/01/10 00:24:34;;;;;;;14.90;9.20;;;;;;;;;;5033933;28;20085;-52
2024/01/10 00:27:00;;;;;;;16.70;9.45;;;;;;;;;;5063685;28;20029;-53
2024/01/10 00:29:26;;;;;;;16.10;8.20;;;;;;;;;;5071375;28;20117;-49
2024/01/10 00:31:53;;;;;;;13.87;8.33;;;;;;;;;;5069595;28;20028;-51
2024/01/10 00:34:19;;;;;;;17.10;8.85;;;;;;;;;;5070850;28;20019;-52
2024/01/10 00:36:45;;;;;;;17.83;8.87;;;;;;;;;;5044084;28;20075;-49
2024/01/10 00:39:12;;;;;;;17.45;8.15;;;;;;;;;;5069216;28;20028;-51
2024/01/10 00:41:38;;;;;;;17.70;8.70;;;;;;;;;;5060340;28;20021;-50
2024/01/10 00:44:04;;;;;;;15.57;7.93;;;;;;;;;;5051226;28;20029;-52
2024/01/10 00:46:30;;;;;;;16.73;8.63;;;;;;;;;;5024067;28;20116;-52
2024/01/10 00:48:56;;;;;;;12.43;8.48;;;;;;;;;;5033771;28;20032;-53
2024/01/10 00:51:23;;;;;;;14.77;8.18;;;;;;;;;;5051320;28;20028;-53
2024/01/10 00:53:49;;;;;;;14.30;8.68;;;;;;;;;;5051250;28;20025;-51
2024/01/10 00:56:15;;;;;;;17.08;9.77;;;;;;;;;;5037955;28;20414;-50
2024/01/10 00:58:41;;;;;;;13.43;8.55;;;;;;;;;;5069428;28;20016;-52
2024/01/10 01:01:07;;;;;;;15.20;9.17;;;;;;;;;;5044847;28;20040;-53
2024/01/10 01:03:34;;;;;;;14.77;8.48;;;;;;;;;;5033427;28;20025;-53
2024/01/10 01:06:00;;;;;;;16.27;9.60;;;;;;;;;;5053365;28;20029;-52
2024/01/10 01:08:26;;;;;;;15.07;9.73;;;;;;;;;;5071222;28;20028;-51
2024/01/10 01:10:52;;;;;;;17.65;8.40;;;;;;;;;;5071783;28;20036;-51
2024/01/10 01:13:18;;;;;;;16.33;8.07;;;;;;;;;;5074777;28;20401;-52
2024/01/10 01:15:44;;;;;;;16.70;9.02;;;;;;;;;;5072321;28;20020;-53
2024/01/10 01:18:12;;;;;;;16.48;7.25;;;;;;;;;;5038182;28;20039;-51
2024/01/10 01:20:38;;;;;;;12.02;7.60;;;;;;;;;;5037356;28;20399;-51
2024/01/10 01:23:05;;;;;;;13.00;7.97;;;;;;;;;;5060290;28;20027;-53
2024/01/10 01:25:31;;;;;;;16.80;8.05;;;;;;;;;;5070015;28;20103;-49
2024/01/10 01:27:57;;;;;;;15.43;7.50;;;;;;;;;;5072900;28;20037;-50
2024/01/10 01:30:24;;;;;;;12.88;8.85;;;;;;;;;;5071571;28;20120;-52
2024/01/10 01:32:50;;;;;;;18.63;10.32;;;;;;;;;;5037968;28;20052;-51
2024/01/10 01:35:21;;;;;;;22.75;10.60;;;;;;;;;;5055938;28;20040;-50
2024/01/10 01:37:47;;;;;;;16.58;9.65;;;;;;;;;;5057643;28;20487;-48
2024/01/10 01:40:13;;;;;;;13.83;8.10;;;;;;;;;;5036770;28;20457;-49
2024/01/10 01:42:40;;;;;;;16.55;10.18;;;;;;;;;;5054851;28;20029;-51
2024/01/10 01:45:06;;;;;;;20.65;9.07;;;;;;;;;;5037419;28;20070;-48
2024/01/10 01:47:33;;;;;;;15.10;9.15;;;;;;;;;;5050161;28;20020;-48
2024/01/10 01:49:59;;;;;;;16.27;10.17;;;;;;;;;;5071404;28;20360;-53
2024/01/10 01:52:25;;;;;;;17.93;11.23;;;;;;;;;;5054407;28;20048;-49
2024/01/10 01:54:51;;;;;;;20.33;10.67;;;;;;;;;;5055193;28;20154;-49
2024/01/10 01:57:18;;;;;;;24.90;10.32;;;;;;;;;;5036420;28;20037;-52
2024/01/10 01:59:44;;;;;;;29.33;12.32;;;;;;;;;;5036360;28;20127;-51
2024/01/10 02:02:11;;;;;;;24.38;14.32;;;;;;;;;;5043457;28;20379;-48
2024/01/10 02:04:38;;;;;;;31.48;14.68;;;;;;;;;;5074336;28;20406;-51
2024/01/10 02:07:04;;;;;;;19.07;10.83;;;;;;;;;;5063755;28;20064;-48
2024/01/10 02:09:30;;;;;;;35.70;14.40;;;;;;;;;;5054079;28;20025;-49
2024/01/10 02:11:56;;;;;;;32.40;13.43;;;;;;;;;;5054114;28;20060;-53
2024/01/10 02:14:23;;;;;;;24.05;11.80;;;;;;;;;;5066307;28;20383;-49
2024/01/10 02:16:49;;;;;;;24.13;11.03;;;;;;;;;;5048603;28;20047;-49
2024/01/10 02:19:22;;;;;;;25.57;10.73;;;;;;;;;;5068861;28;20424;-49
2024/01/10 02:21:49;;;;;;;22.05;11.52;;;;;;;;;;5036037;28;20033;-51
2024/01/10 02:24:15;;;;;;;18.25;10.13;;;;;;;;;;5047539;28;20120;-50
2024/01/10 02:26:42;;;;;;;16.48;10.00;;;;;;;;;;5055668;28;20032;-49
2024/01/10 02:29:08;;;;;;;19.60;10.43;;;;;;;;;;5073698;28;20029;-50
2024/01/10 02:31:34;;;;;;;17.87;11.23;;;;;;;;;;5055994;28;20445;-48
2024/01/10 02:34:00;;;;;;;23.27;11.25;;;;;;;;;;5073340;28;20017;-49
2024/01/10 02:36:27;;;;;;;22.92;11.88;;;;;;;;;;5026008;28;20044;-49
2024/01/10 02:38:53;;;;;;;24.00;11.85;;;;;;;;;;5053631;28;20021;-48
2024/01/10 02:41:19;;;;;;;19.15;11.10;;;;;;;;;;5035624;28;20554;-49
2024/01/10 02:43:45;;;;;;;20.15;10.70;;;;;;;;;;5019125;28;20395;-51
2024/01/10 02:46:11;;;;;;;20.23;12.20;;;;;;;;;;5053292;28;20029;-48
2024/01/10 02:48:37;;;;;;;27.65;11.85;;;;;;;;;;5053504;28;20036;-48
2024/01/10 02:51:04;;;;;;;20.45;10.80;;;;;;;;;;5036579;28;20549;-50
2024/01/10 02:53:30;;;;;;;22.13;9.88;;;;;;;;;;5053024;28;20033;-50
2024/01/10 02:55:56;;;;;;;18.67;10.87;;;;;;;;;;5055184;28;20443;-48
2024/01/10 02:58:25;;;;;;;21.63;10.85;;;;;;;;;;5072462;28;20266;-48
2024/01/10 03:00:51;;;;;;;19.65;11.38;;;;;;;;;;5046851;28;20021;-49
2024/01/10 03:03:17;;;;;;;23.33;11.20;;;;;;;;;;5062771;28;20016;-48
2024/01/10 03:05:44;;;;;;;21.95;11.63;;;;;;;;;;5071125;28;20016;-49
2024/01/10 03:08:10;;;;;;;19.73;11.38;;;;;;;;;;5054296;28;20086;-50
2024/01/10 03:10:36;;;;;;;20.67;11.50;;;;;;;;;;5058683;28;20120;-49
2024/01/10 03:13:02;;;;;;;29.58;11.95;;;;;;;;;;5072459;28;20078;-48
2024/01/10 03:15:30;;;;;;;23.60;11.57;;;;;;;;;;5045134;28;20044;-48
2024/01/10 03:17:57;;;;;;;23.00;11.10;;;;;;;;;;5055048;28;20058;-48
2024/01/10 03:20:23;;;;;;;23.38;12.18;;;;;;;;;;5035731;28;20487;-49
2024/01/10 03:22:49;;;;;;;18.17;11.15;;;;;;;;;;5018584;28;20032;-49
2024/01/10 03:25:15;;;;;;;17.67;10.55;;;;;;;;;;5034433;28;20029;-48
2024/01/10 03:27:41;;;;;;;21.13;11.27;;;;;;;;;;5053633;28;20033;-49
2024/01/10 03:30:08;;;;;;;25.58;12.23;;;;;;;;;;5034802;28;20074;-49
2024/01/10 03:32:34;;;;;;;22.27;10.73;;;;;;;;;;5041883;28;20035;-48
2024/01/10 03:35:00;;;;;;;23.27;11.10;;;;;;;;;;5061327;28;20098;-49
2024/01/10 03:37:26;;;;;;;22.83;11.48;;;;;;;;;;5034405;28;20044;-53
2024/01/10 03:39:52;;;;;;;23.17;11.80;;;;;;;;;;5017566;28;20060;-49
2024/01/10 03:42:19;;;;;;;28.00;13.10;;;;;;;;;;5065311;28;20039;-48
2024/01/10 03:44:45;;;;;;;28.65;13.02;;;;;;;;;;5053432;28;20024;-51
2024/01/10 03:47:11;;;;;;;22.80;12.15;;;;;;;;;;5054456;28;20025;-52
2024/01/10 03:49:37;;;;;;;30.45;11.98;;;;;;;;;;5017943;28;20116;-49
2024/01/10 03:52:03;;;;;;;24.10;12.63;;;;;;;;;;5046298;28;20439;-51
2024/01/10 03:54:30;;;;;;;25.83;12.20;;;;;;;;;;5062426;28;20087;-51
2024/01/10 03:56:56;;;;;;;27.80;13.80;;;;;;;;;;5068692;28;20391;-48
2024/01/10 03:59:22;;;;;;;21.00;12.10;;;;;;;;;;5072067;28;20070;-49
2024/01/10 04:01:49;;;;;;;27.42;12.07;;;;;;;;;;5050752;28;20025;-51
2024/01/10 04:04:15;;;;;;;21.95;12.10;;;;;;;;;;5053633;28;20029;-49
2024/01/10 04:06:41;;;;;;;24.65;11.32;;;;;;;;;;5045691;28;20033;-49
2024/01/10 04:09:09;;;;;;;21.95;11.98;;;;;;;;;;5017526;28;20029;-49
2024/01/10 04:11:35;;;;;;;23.75;10.90;;;;;;;;;;5064236;28;20515;-48
2024/01/10 04:14:02;;;;;;;29.33;11.83;;;;;;;;;;5064105;28;20387;-50
2024/01/10 04:16:28;;;;;;;23.95;12.02;;;;;;;;;;5066208;28;20028;-48
2024/01/10 04:18:54;;;;;;;25.30;10.57;;;;;;;;;;5071848;28;20032;-50
2024/01/10 04:21:20;;;;;;;21.35;11.57;;;;;;;;;;5063805;28;20071;-53
2024/01/10 04:23:46;;;;;;;22.13;11.13;;;;;;;;;;5033493;28;20043;-48
2024/01/10 04:26:12;;;;;;;27.40;13.05;;;;;;;;;;5051435;28;20332;-50
2024/01/10 04:28:41;;;;;;;23.90;11.68;;;;;;;;;;5033921;28;20029;-50
2024/01/10 04:31:07;;;;;;;22.42;11.60;;;;;;;;;;5059951;28;20037;-50
2024/01/10 04:33:33;;;;;;;14.55;8.43;;;;;;;;;;5043596;28;20029;-52
2024/01/10 04:35:59;;;;;;;16.30;8.68;;;;;;;;;;5052972;28;20037;-49
2024/01/10 04:38:26;;;;;;;18.20;10.68;;;;;;;;;;5063549;28;20017;-51
2024/01/10 04:40:53;;;;;;;23.42;12.00;;;;;;;;;;5064211;28;20017;-51
2024/01/10 04:43:19;;;;;;;20.85;10.52;;;;;;;;;;5052547;28;20025;-48
2024/01/10 04:45:46;;;;;;;24.88;11.27;;;;;;;;;;5055769;28;20017;-49
2024/01/10 04:48:12;;;;;;;25.27;11.67;;;;;;;;;;5055937;28;20047;-48
2024/01/10 04:50:38;;;;;;;22.60;12.00;;;;;;;;;;5066978;28;20039;-47
2024/01/10 04:53:04;;;;;;;20.53;11.57;;;;;;;;;;5057447;28;20086;-46
2024/01/10 04:55:31;;;;;;;21.98;11.23;;;;;;;;;;5053012;28;20029;-50
2024/01/10 04:57:57;;;;;;;31.83;13.60;;;;;;;;;;5055224;28;20037;-48
2024/01/10 05:00:23;;;;;;;22.27;12.15;;;;;;;;;;5037569;28;20275;-49
2024/01/10 05:02:49;;;;;;;22.67;11.70;;;;;;;;;;5055350;28;20040;-51
2024/01/10 05:05:16;;;;;;;20.30;12.47;;;;;;;;;;5037083;28;20033;-50
2024/01/10 05:07:42;;;;;;;21.63;12.60;;;;;;;;;;5020705;28;20078;-52
2024/01/10 05:10:08;;;;;;;18.65;11.68;;;;;;;;;;5055288;28;20395;-48
2024/01/10 05:12:34;;;;;;;23.20;12.10;;;;;;;;;;5055243;28;20051;-48
2024/01/10 05:15:01;;;;;;;24.37;13.57;;;;;;;;;;5037010;28;20029;-49
2024/01/10 05:17:27;;;;;;;22.88;12.20;;;;;;;;;;5054984;28;20029;-48
2024/01/10 05:19:53;;;;;;;19.33;12.70;;;;;;;;;;5055001;28;20029;-49
2024/01/10 05:22:19;;;;;;;29.52;12.73;;;;;;;;;;5054939;28;20454;-51
2024/01/10 05:24:46;;;;;;;18.40;11.50;;;;;;;;;;5054708;28;20025;-50
2024/01/10 05:27:12;;;;;;;23.35;11.38;;;;;;;;;;5037047;28;20126;-48
2024/01/10 05:29:39;;;;;;;27.33;12.77;;;;;;;;;;5054858;28;20024;-49
2024/01/10 05:32:06;;;;;;;19.27;11.25;;;;;;;;;;5054773;28;20029;-49
2024/01/10 05:34:32;;;;;;;26.23;12.05;;;;;;;;;;5036603;28;20025;-51
2024/01/10 05:36:58;;;;;;;20.05;11.05;;;;;;;;;;5020605;28;20047;-53
2024/01/10 05:39:24;;;;;;;18.00;10.73;;;;;;;;;;5054719;28;20064;-52
2024/01/10 05:41:51;;;;;;;19.67;11.60;;;;;;;;;;5036823;28;20484;-49
2024/01/10 05:44:17;;;;;;;18.73;9.67;;;;;;;;;;5036373;28;20021;-52
2024/01/10 05:46:44;;;;;;;18.25;10.90;;;;;;;;;;5054395;28;20487;-50
2024/01/10 05:49:10;;;;;;;;;;;;;;;;;;5037046;28;20035;-49
2024/01/10 05:51:37;;;;;;;21.80;11.90;;;;;;;;;;5054465;28;19955;-49
2024/01/10 05:54:04;;;;;;;24.67;11.63;;;;;;;;;;5054147;28;20037;-50
2024/01/10 05:56:30;;;;;;;26.10;12.90;;;;;;;;;;5069819;28;20083;-50
2024/01/10 05:58:56;;;;;;;33.83;14.43;;;;;;;;;;5054246;28;20067;-51
2024/01/10 06:01:22;;;;;;;33.75;18.55;;;;;;;;;;5036248;28;20032;-52
2024/01/10 06:04:14;;;;;;;21.23;12.80;;;;;;;;;;5054438;28;20094;-49
2024/01/10 06:07:06;;;;;;;22.83;10.57;;;;;;;;;;5054379;28;20124;-49
2024/01/10 06:09:35;;;;;;;17.88;11.05;;;;;;;;;;5054010;28;20403;-47
2024/01/10 06:12:03;;;;;;;21.52;11.10;;;;;;;;;;5053903;28;20074;-48
2024/01/10 06:14:30;;;;;;;23.20;11.52;;;;;;;;;;5035837;28;20036;-50
2024/01/10 06:16:59;;;;;;;25.75;11.02;;;;;;;;;;5069667;28;20025;-51
2024/01/10 06:19:26;;;;;;;23.95;10.45;;;;;;;;;;5036355;28;20025;-49
2024/01/10 06:21:52;;;;;;;19.40;10.38;;;;;;;;;;5053862;28;20085;-50
2024/01/10 06:24:18;;;;;;;21.63;11.83;;;;;;;;;;5053541;28;20064;-50
2024/01/10 06:26:44;;;;;;;22.50;11.15;;;;;;;;;;5053705;28;20064;-49
2024/01/10 06:29:11;;;;;;;20.67;11.23;;;;;;;;;;5054256;28;20424;-48
2024/01/10 06:31:37;;;;;;;23.40;11.57;;;;;;;;;;5035810;28;20127;-51
2024/01/10 06:34:03;;;;;;;21.23;11.75;;;;;;;;;;5053549;28;20032;-48
2024/01/10 06:36:29;;;;;;;25.37;12.27;;;;;;;;;;5053544;28;20048;-52
2024/01/10 06:38:55;;;;;;;21.42;12.32;;;;;;;;;;5053589;28;20263;-48
2024/01/10 06:41:25;;;;;;;23.25;12.48;;;;;;;;;;5053494;28;20041;-51
2024/01/10 06:43:52;;;;;;;24.27;12.80;;;;;;;;;;5018932;28;20037;-49
2024/01/10 06:46:18;;;;;;;21.10;11.90;;;;;;;;;;5053513;28;20448;-52
2024/01/10 06:48:44;;;;;;;23.17;11.90;;;;;;;;;;5053324;28;20036;-49
2024/01/10 06:51:13;;;;;;;28.20;12.43;;;;;;;;;;5035376;28;20299;-47
2024/01/10 06:53:40;;;;;;;24.90;12.40;;;;;;;;;;5053064;28;20025;-48
2024/01/10 06:56:07;;;;;;;29.90;15.18;;;;;;;;;;5035281;28;20029;-51
2024/01/10 06:58:33;;;;;;;25.88;12.48;;;;;;;;;;5035440;28;20028;-50
2024/01/10 07:01:05;;;;;;;34.75;12.73;;;;;;;;;;5053132;28;20021;-48
2024/01/10 07:03:32;;;;;;;27.35;11.77;;;;;;;;;;5052990;28;20017;-49
2024/01/10 07:05:58;;;;;;;26.90;12.50;;;;;;;;;;5052947;28;20029;-49
2024/01/10 07:08:26;;;;;;;34.57;13.67;;;;;;;;;;5034697;28;20033;-50
2024/01/10 07:10:55;;;;;;;26.08;13.68;;;;;;;;;;5034978;28;20112;-50
2024/01/10 07:13:22;;;;;;;24.05;13.65;;;;;;;;;;5018498;28;20029;-47
2024/01/10 07:15:48;;;;;;;26.83;14.00;;;;;;;;;;5052627;28;20021;-49
2024/01/10 07:18:14;;;;;;;30.77;14.20;;;;;;;;;;5018458;28;20029;-48
2024/01/10 07:20:40;;;;;;;32.17;14.38;;;;;;;;;;5034800;28;20033;-49
2024/01/10 07:23:06;;;;;;;26.13;13.52;;;;;;;;;;5052754;28;20082;-50
2024/01/10 07:25:33;;;;;;;29.45;15.07;;;;;;;;;;5052468;28;20751;-49
2024/01/10 07:28:00;;;;;;;31.73;13.40;;;;;;;;;;5052581;28;20491;-50
2024/01/10 07:30:27;;;;;;;24.95;12.85;;;;;;;;;;5052605;28;20056;-49
2024/01/10 07:32:53;;;;;;;33.30;14.80;;;;;;;;;;5034698;28;20112;-49
2024/01/10 07:35:20;;;;;;;24.20;13.53;;;;;;;;;;5034002;28;20039;-48
2024/01/10 07:37:47;;;;;;;32.90;13.02;;;;;;;;;;5052419;28;20765;-48
2024/01/10 07:40:13;;;;;;;20.70;10.70;;;;;;;;;;5052433;28;20029;-49
2024/01/10 07:42:42;;;;;;;27.73;14.80;;;;;;;;;;5052348;28;20511;-49
2024/01/10 07:45:09;;;;;;;28.10;13.18;;;;;;;;;;5034175;28;20310;-52
2024/01/10 07:47:38;;;;;;;28.20;13.50;;;;;;;;;;5052074;28;20037;-49
2024/01/10 07:50:08;;;;;;;29.38;14.32;;;;;;;;;;5052050;28;20040;-49
2024/01/10 07:52:34;;;;;;;34.33;13.23;;;;;;;;;;5034384;28;20025;-48
2024/01/10 07:55:00;;;;;;;24.93;13.63;;;;;;;;;;5034140;28;20521;-48
2024/01/10 07:57:27;;;;;;;20.13;10.90;;;;;;;;;;5034272;28;20700;-48
2024/01/10 07:59:54;;;;;;;28.35;15.10;;;;;;;;;;5052024;28;20029;-51
2024/01/10 08:02:20;;;;;;;23.60;12.85;;;;;;;;;;5034171;28;20035;-50
2024/01/10 08:04:46;;;;;;;26.80;13.90;;;;;;;;;;5034040;28;20127;-52
2024/01/10 08:07:13;;;;;;;24.48;13.35;;;;;;;;;;5017585;28;20800;-49
2024/01/10 08:09:39;;;;;;;32.28;16.42;;;;;;;;;;5051961;28;20029;-49
2024/01/10 08:12:05;;;;;;;27.17;13.32;;;;;;;;;;5051950;28;20033;-50
2024/01/10 08:14:32;;;;;;;39.28;15.35;;;;;;;;;;5033739;28;20028;-51
2024/01/10 08:16:58;;;;;;;24.87;13.97;;;;;;;;;;5033863;28;20115;-49
2024/01/10 08:19:28;;;;;;;24.07;13.23;;;;;;;;;;5051564;28;20037;-52
2024/01/10 08:21:54;;;;;;;22.95;13.02;;;;;;;;;;5050855;28;20123;-53
2024/01/10 08:24:21;;;;;;;22.27;12.63;;;;;;;;;;5033502;28;20040;-50
2024/01/10 08:26:51;;;;;;;19.42;9.82;;;;;;;;;;5051615;28;20037;-51
2024/01/10 08:29:18;;;;;;;25.20;13.23;;;;;;;;;;5017338;28;20033;-51
2024/01/10 08:31:45;;;;;;;;;;;;;;;;;;5017674;28;20406;-49
2024/01/10 08:34:11;;;;;;;25.98;13.10;;;;;;;;;;5051173;28;19909;-53
2024/01/10 08:36:38;;;;;;;34.43;13.97;;;;;;;;;;5033812;28;20132;-50
2024/01/10 08:39:04;;;;;;;21.92;12.68;;;;;;;;;;5051590;28;20295;-49
2024/01/10 08:41:30;;;;;;;16.70;11.03;;;;;;;;;;5051445;28;20035;-49
2024/01/10 08:43:57;;;;;;;21.80;12.05;;;;;;;;;;5051167;28;20584;-52
2024/01/10 08:46:24;;;;;;;20.50;12.15;;;;;;;;;;5051241;28;20511;-49
2024/01/10 08:48:51;;;;;;;25.02;13.13;;;;;;;;;;5051655;28;20032;-48
2024/01/10 08:51:17;;;;;;;23.63;16.38;;;;;;;;;;5033545;28;20037;-49
2024/01/10 08:53:46;;;;;;;31.25;17.83;;;;;;;;;;5051598;28;20053;-49
2024/01/10 08:56:12;;;;;;;23.20;12.63;;;;;;;;;;5051144;28;20029;-52
2024/01/10 08:58:38;;;;;;;21.90;12.00;;;;;;;;;;5033452;28;20446;-49
2024/01/10 09:01:04;;;;;;;19.67;11.27;;;;;;;;;;5051323;28;20494;-49
2024/01/10 09:03:31;;;;;;;18.63;10.90;;;;;;;;;;5033343;28;20036;-52
2024/01/10 09:05:57;;;;;;;23.60;11.00;;;;;;;;;;5033311;28;20037;-49
2024/01/10 09:08:23;;;;;;;20.13;11.63;;;;;;;;;;5051187;28;20377;-49
2024/01/10 09:10:49;;;;;;;23.43;12.87;;;;;;;;;;5051131;28;20035;-50
2024/01/10 09:13:17;;;;;;;23.07;13.23;;;;;;;;;;5051248;28;20025;-51
2024/01/10 09:15:43;;;;;;;25.70;12.32;;;;;;;;;;5050850;28;20507;-48
2024/01/10 09:18:09;;;;;;;22.40;10.47;;;;;;;;;;5051175;28;20029;-51
2024/01/10 09:20:36;;;;;;;26.37;11.70;;;;;;;;;;5051274;28;20052;-50
2024/01/10 09:23:02;;;;;;;20.10;10.80;;;;;;;;;;5051187;28;20060;-49
2024/01/10 09:25:29;;;;;;;24.02;11.98;;;;;;;;;;5050755;28;20044;-53
2024/01/10 09:27:55;;;;;;;23.52;13.07;;;;;;;;;;5050960;28;20029;-51
2024/01/10 09:30:23;;;;;;;18.27;10.85;;;;;;;;;;5051030;28;20033;-51
2024/01/10 09:32:50;;;;;;;26.08;12.68;;;;;;;;;;5035128;28;20029;-50
2024/01/10 09:35:17;;;;;;;22.58;12.70;;;;;;;;;;5054515;28;20028;-50
2024/01/10 09:37:45;;;;;;;19.58;10.63;;;;;;;;;;5054713;28;20032;-53
2024/01/10 09:40:13;;;;;;;19.02;10.38;;;;;;;;;;5054652;28;20060;-51
2024/01/10 09:42:40;;;;;;;21.33;11.65;;;;;;;;;;5036639;28;20479;-49
2024/01/10 09:45:08;;;;;;;15.85;9.68;;;;;;;;;;5054591;28;20040;-50
2024/01/10 09:47:36;;;;;;;17.42;9.43;;;;;;;;;;5054674;28;20079;-50
2024/01/10 09:50:03;;;;;;;13.43;8.55;;;;;;;;;;5036719;28;20029;-50
2024/01/10 09:52:35;;;;;;;14.98;9.23;;;;;;;;;;5054380;28;20036;-51
2024/01/10 09:55:01;;;;;;;16.75;10.15;;;;;;;;;;5019940;28;20407;-54
2024/01/10 09:57:28;;;;;;;17.35;9.90;;;;;;;;;;5054359;28;20467;-49
2024/01/10 09:59:54;;;;;;;14.37;8.47;;;;;;;;;;5054372;28;20029;-49
2024/01/10 10:02:24;;;;;;;15.25;8.38;;;;;;;;;;5054271;28;20409;-50
2024/01/10 10:04:55;;;;;;;20.63;10.18;;;;;;;;;;5036047;28;20067;-49
2024/01/10 10:07:21;;;;;;;14.52;7.63;;;;;;;;;;5054152;28;20041;-50
2024/01/10 10:09:47;;;;;;;16.05;8.70;;;;;;;;;;5036270;28;20031;-50
2024/01/10 10:12:13;;;;;;;14.82;7.82;;;;;;;;;;5054157;28;20104;-50
2024/01/10 10:14:40;;;;;;;16.67;8.75;;;;;;;;;;5053795;28;20021;-51
2024/01/10 10:17:16;;;;;;;14.73;8.88;;;;;;;;;;5036259;28;20491;-50
2024/01/10 10:19:43;;;;;;;12.98;8.60;;;;;;;;;;5053951;28;20029;-49
2024/01/10 10:22:09;;;;;;;13.43;8.43;;;;;;;;;;5053874;28;20045;-50
2024/01/10 10:24:35;;;;;;;17.45;9.35;;;;;;;;;;5052401;28;20533;-50
2024/01/10 10:27:02;;;;;;;14.90;8.83;;;;;;;;;;5036038;28;20029;-51
2024/01/10 10:29:28;;;;;;;17.90;8.85;;;;;;;;;;5035996;28;20083;-51
2024/01/10 10:31:55;;;;;;;17.52;9.50;;;;;;;;;;5053667;28;20530;-50
2024/01/10 10:34:22;;;;;;;18.80;9.35;;;;;;;;;;5053755;28;20422;-50
2024/01/10 10:36:49;;;;;;;18.50;10.18;;;;;;;;;;5019219;28;20068;-49
2024/01/10 10:39:18;;;;;;;20.90;9.27;;;;;;;;;;5053824;28;20029;-54
2024/01/10 10:41:46;;;;;;;15.32;8.77;;;;;;;;;;5035882;28;20021;-51
2024/01/10 10:44:13;;;;;;;19.80;9.27;;;;;;;;;;5034879;28;20057;-50
2024/01/10 10:46:39;;;;;;;;;;;;;;;;;;5053856;28;20384;-52
2024/01/10 10:49:11;;;;;;;20.33;8.45;;;;;;;;;;5053330;28;19905;-52
2024/01/10 10:51:37;;;;;;;16.98;8.57;;;;;;;;;;5035622;28;20025;-50
2024/01/10 10:54:04;;;;;;;14.15;8.30;;;;;;;;;;5053153;28;20108;-53
2024/01/10 10:56:36;;;;;;;;;;;;;;;;;;5053694;28;20024;-54
2024/01/10 10:59:03;;;;;;;15.40;10.38;;;;;;;;;;5035379;28;19909;-51
2024/01/10 11:01:30;;;;;;;14.63;8.25;;;;;;;;;;5053121;28;20029;-51
2024/01/10 11:03:57;;;;;;;12.70;7.90;;;;;;;;;;5035197;28;20102;-51
2024/01/10 11:06:23;;;;;;;13.00;7.65;;;;;;;;;;5035241;28;20033;-49
2024/01/10 11:08:54;;;;;;;12.57;7.80;;;;;;;;;;5035414;28;20510;-53
2024/01/10 11:11:33;;;;;;;16.15;8.43;;;;;;;;;;5035235;28;20025;-50
2024/01/10 11:14:06;;;;;;;12.25;7.95;;;;;;;;;;5052815;28;20044;-52
2024/01/10 11:16:35;;;;;;;14.35;8.30;;;;;;;;;;5069455;28;20025;-53
2024/01/10 11:19:07;;;;;;;12.65;7.90;;;;;;;;;;5065965;28;20023;-51
2024/01/10 11:21:51;;;;;;;13.57;8.85;;;;;;;;;;5052935;28;20103;-54
2024/01/10 11:24:18;;;;;;;18.75;7.90;;;;;;;;;;5051543;28;20052;-51
2024/01/10 11:26:45;;;;;;;14.15;8.25;;;;;;;;;;5053227;28;20044;-52
2024/01/10 11:29:12;;;;;;;16.13;9.90;;;;;;;;;;5053182;28;20050;-49
2024/01/10 11:31:39;;;;;;;13.77;8.98;;;;;;;;;;5050712;28;20112;-50
2024/01/10 11:34:05;;;;;;;12.90;7.97;;;;;;;;;;5055611;28;20145;-51
2024/01/10 11:36:32;;;;;;;12.20;9.13;;;;;;;;;;5036222;28;20041;-49
2024/01/10 11:39:02;;;;;;;14.33;8.63;;;;;;;;;;5036823;28;20107;-51
2024/01/10 11:41:28;;;;;;;15.57;8.63;;;;;;;;;;5069092;28;20274;-51
2024/01/10 11:44:15;;;;;;;14.52;8.77;;;;;;;;;;5060149;28;20036;-49
2024/01/10 11:46:42;;;;;;;13.15;9.20;;;;;;;;;;5063312;28;20495;-49
2024/01/10 11:49:13;;;;;;;14.57;8.50;;;;;;;;;;5050529;28;20025;-50
2024/01/10 11:51:39;;;;;;;13.18;8.38;;;;;;;;;;5069112;28;20321;-51
2024/01/10 11:54:06;;;;;;;10.60;7.35;;;;;;;;;;5067119;28;20439;-49
2024/01/10 11:56:39;;;;;;;17.38;9.43;;;;;;;;;;5050574;28;20035;-50
2024/01/10 11:59:10;;;;;;;16.42;8.82;;;;;;;;;;5062691;28;20027;-51
2024/01/10 12:01:37;;;;;;;18.83;9.73;;;;;;;;;;5042169;28;20434;-51
2024/01/10 12:04:03;;;;;;;14.55;8.40;;;;;;;;;;5043382;28;20449;-51
2024/01/10 12:06:30;;;;;;;16.73;10.20;;;;;;;;;;5050593;28;20235;-50
2024/01/10 12:08:56;;;;;;;14.50;8.13;;;;;;;;;;5061521;28;20430;-51
2024/01/10 12:11:23;;;;;;;12.70;8.48;;;;;;;;;;5050354;28;20390;-50
2024/01/10 12:13:49;;;;;;;14.57;9.50;;;;;;;;;;5056919;28;20021;-50
2024/01/10 12:16:16;;;;;;;11.77;8.25;;;;;;;;;;5040691;28;20304;-49
2024/01/10 12:18:45;;;;;;;17.42;8.93;;;;;;;;;;5051249;28;20028;-50
2024/01/10 12:21:12;;;;;;;13.45;7.80;;;;;;;;;;5069152;28;20032;-50
2024/01/10 12:23:38;;;;;;;13.98;8.73;;;;;;;;;;5058275;28;20482;-51
2024/01/10 12:26:11;;;;;;;14.47;9.30;;;;;;;;;;5048098;28;20034;-53
2024/01/10 12:28:39;;;;;;;17.23;9.13;;;;;;;;;;5051497;28;20295;-50
2024/01/10 12:31:09;;;;;;;13.18;8.52;;;;;;;;;;5059343;28;20028;-52
2024/01/10 12:33:42;;;;;;;12.98;7.82;;;;;;;;;;5069408;28;20017;-50
2024/01/10 12:36:11;;;;;;;11.75;7.75;;;;;;;;;;5069815;28;20037;-50
2024/01/10 12:38:40;;;;;;;14.25;8.73;;;;;;;;;;5069930;28;20058;-51
2024/01/10 12:41:09;;;;;;;12.38;8.85;;;;;;;;;;5064458;28;20403;-50
2024/01/10 12:43:36;;;;;;;11.65;7.75;;;;;;;;;;5031771;28;20036;-50
2024/01/10 12:46:13;;;;;;;13.03;8.17;;;;;;;;;;5057745;28;20758;-50
2024/01/10 12:48:41;;;;;;;15.85;9.20;;;;;;;;;;5069776;28;20326;-51
2024/01/10 12:51:08;;;;;;;14.13;9.45;;;;;;;;;;5050248;28;20029;-50
2024/01/10 12:53:35;;;;;;;11.00;8.00;;;;;;;;;;5036523;28;20024;-51
2024/01/10 12:56:02;;;;;;;14.63;8.80;;;;;;;;;;5062262;28;20595;-51
2024/01/10 12:58:29;;;;;;;14.30;9.20;;;;;;;;;;5049803;28;20033;-55
2024/01/10 13:00:56;;;;;;;15.05;9.55;;;;;;;;;;5065505;28;20047;-51
2024/01/10 13:03:23;;;;;;;15.55;8.57;;;;;;;;;;5047028;28;20124;-49
2024/01/10 13:05:49;;;;;;;11.93;8.60;;;;;;;;;;5069621;28;20029;-51
2024/01/10 13:08:15;;;;;;;16.33;9.67;;;;;;;;;;5054263;28;20074;-51
2024/01/10 13:10:42;;;;;;;10.10;7.53;;;;;;;;;;5070807;28;20063;-50
2024/01/10 13:13:08;;;;;;;14.60;8.23;;;;;;;;;;5058473;28;20116;-51
2024/01/10 13:15:35;;;;;;;11.38;7.68;;;;;;;;;;5064696;28;20021;-53
2024/01/10 13:18:01;;;;;;;14.40;9.27;;;;;;;;;;5044033;28;20071;-50
2024/01/10 13:20:28;;;;;;;12.07;7.82;;;;;;;;;;5052001;28;20549;-51
2024/01/10 13:22:54;;;;;;;9.73;7.20;;;;;;;;;;5046430;28;20555;-51
2024/01/10 13:25:23;;;;;;;11.18;8.18;;;;;;;;;;5044563;28;20067;-52
2024/01/10 13:27:53;;;;;;;15.25;8.82;;;;;;;;;;5055029;28;20183;-51
2024/01/10 13:30:19;;;;;;;16.25;9.88;;;;;;;;;;5058399;28;20108;-52
2024/01/10 13:32:48;;;;;;;18.45;13.88;;;;;;;;;;5078279;28;20020;-54
2024/01/10 13:35:16;;;;;;;12.18;9.07;;;;;;;;;;5072288;28;20077;-54
2024/01/10 13:37:42;;;;;;;11.13;8.23;;;;;;;;;;5073397;28;20029;-54
2024/01/10 13:40:12;;;;;;;16.27;12.70;;;;;;;;;;5074620;28;20400;-50
2024/01/10 13:43:04;;;;;;;10.35;7.80;;;;;;;;;;5074928;28;20521;-50
2024/01/10 13:45:30;;;;;;;16.55;9.10;;;;;;;;;;5074345;28;20490;-50
2024/01/10 13:47:56;;;;;;;14.80;9.23;;;;;;;;;;5056813;28;20028;-48
2024/01/10 13:50:24;;;;;;;14.98;10.00;;;;;;;;;;5074498;28;20077;-50
2024/01/10 13:52:50;;;;;;;14.98;9.32;;;;;;;;;;5074493;28;20538;-51
2024/01/10 13:55:16;;;;;;;15.63;8.93;;;;;;;;;;5056422;28;20117;-52
2024/01/10 13:57:43;;;;;;;12.63;8.10;;;;;;;;;;5056559;28;20402;-51
2024/01/10 14:00:14;;;;;;;16.67;8.75;;;;;;;;;;5074412;28;20448;-49
2024/01/10 14:02:41;;;;;;;15.07;9.63;;;;;;;;;;5056503;28;20502;-50
2024/01/10 14:05:07;;;;;;;14.95;8.88;;;;;;;;;;5073891;28;20025;-50
2024/01/10 14:07:35;;;;;;;12.80;8.98;;;;;;;;;;5071537;28;20490;-54
2024/01/10 14:10:01;;;;;;;12.43;9.25;;;;;;;;;;5038365;28;20075;-52
2024/01/10 14:12:29;;;;;;;15.25;8.63;;;;;;;;;;5037506;28;20376;-54
2024/01/10 14:14:55;;;;;;;12.32;8.93;;;;;;;;;;5066526;28;20032;-48
2024/01/10 14:17:22;;;;;;;11.88;8.38;;;;;;;;;;5073276;28;20060;-49
2024/01/10 14:19:50;;;;;;;11.18;8.80;;;;;;;;;;5072137;28;20024;-47
2024/01/10 14:22:18;;;;;;;15.20;9.73;;;;;;;;;;5054070;28;20111;-48